sensor_id;sensor_type;location;lat;lon;timestamp;temperature;humidity
48579;DHT22;34357;51.948;6.132;2024-02-21T00:00:46;8.90;89.00
48579;DHT22;34357;51.948;6.132;2024-02-21T00:03:12;8.90;88.90
48579;DHT22;34357;51.948;6.132;2024-02-21T00:05:38;8.90;89.00
48579;DHT22;34357;51.948;6.132;2024-02-21T00:08:04;8.90;89.10
48579;DHT22;34357;51.948;6.132;2024-02-21T00:10:30;8.80;89.10
48579;DHT22;34357;51.948;6.132;2024-02-21T00:12:58;8.80;89.20
48579;DHT22;34357;51.948;6.132;2024-02-21T00:15:25;8.80;89.30
48579;DHT22;34357;51.948;6.132;2024-02-21T00:17:51;8.80;89.20
48579;DHT22;34357;51.948;6.132;2024-02-21T00:20:17;8.80;89.20
48579;DHT22;34357;51.948;6.132;2024-02-21T00:22:44;8.80;89.20
48579;DHT22;34357;51.948;6.132;2024-02-21T00:25:09;8.80;89.30
48579;DHT22;34357;51.948;6.132;2024-02-21T00:27:35;8.80;89.40
48579;DHT22;34357;51.948;6.132;2024-02-21T00:30:02;8.70;89.50
48579;DHT22;34357;51.948;6.132;2024-02-21T00:32:27;8.80;89.50
48579;DHT22;34357;51.948;6.132;2024-02-21T00:34:53;8.70;89.40
48579;DHT22;34357;51.948;6.132;2024-02-21T00:37:19;8.70;89.40
48579;DHT22;34357;51.948;6.132;2024-02-21T00:39:44;8.70;89.60
48579;DHT22;34357;51.948;6.132;2024-02-21T00:42:10;8.70;89.40
48579;DHT22;34357;51.948;6.132;2024-02-21T00:44:36;8.70;89.40
48579;DHT22;34357;51.948;6.132;2024-02-21T00:47:01;8.70;89.50
48579;DHT22;34357;51.948;6.132;2024-02-21T00:49:27;8.80;89.50
48579;DHT22;34357;51.948;6.132;2024-02-21T00:51:53;8.70;89.40
48579;DHT22;34357;51.948;6.132;2024-02-21T00:54:19;8.60;89.50
48579;DHT22;34357;51.948;6.132;2024-02-21T00:56:44;8.70;89.60
48579;DHT22;34357;51.948;6.132;2024-02-21T00:59:10;8.70;89.80
48579;DHT22;34357;51.948;6.132;2024-02-21T01:01:36;8.80;89.50
48579;DHT22;34357;51.948;6.132;2024-02-21T01:04:02;8.70;89.30
48579;DHT22;34357;51.948;6.132;2024-02-21T01:06:28;8.70;89.50
48579;DHT22;34357;51.948;6.132;2024-02-21T01:08:54;8.70;89.60
48579;DHT22;34357;51.948;6.132;2024-02-21T01:11:20;8.70;89.60
48579;DHT22;34357;51.948;6.132;2024-02-21T01:13:45;8.70;89.50
48579;DHT22;34357;51.948;6.132;2024-02-21T01:16:11;8.70;89.60
48579;DHT22;34357;51.948;6.132;2024-02-21T01:18:37;8.70;89.60
48579;DHT22;34357;51.948;6.132;2024-02-21T01:21:05;8.70;89.70
48579;DHT22;34357;51.948;6.132;2024-02-21T01:23:35;8.70;89.50
48579;DHT22;34357;51.948;6.132;2024-02-21T01:26:02;8.60;89.60
48579;DHT22;34357;51.948;6.132;2024-02-21T01:28:27;8.60;89.80
48579;DHT22;34357;51.948;6.132;2024-02-21T01:30:53;8.60;89.90
48579;DHT22;34357;51.948;6.132;2024-02-21T01:33:19;8.60;89.90
48579;DHT22;34357;51.948;6.132;2024-02-21T01:35:45;8.60;90.00
48579;DHT22;34357;51.948;6.132;2024-02-21T01:38:12;8.70;90.00
48579;DHT22;34357;51.948;6.132;2024-02-21T01:40:38;8.70;89.90
48579;DHT22;34357;51.948;6.132;2024-02-21T01:43:15;8.80;89.60
48579;DHT22;34357;51.948;6.132;2024-02-21T01:45:42;8.80;89.60
48579;DHT22;34357;51.948;6.132;2024-02-21T01:48:08;8.70;89.60
48579;DHT22;34357;51.948;6.132;2024-02-21T01:50:34;8.80;89.60
48579;DHT22;34357;51.948;6.132;2024-02-21T01:53:00;8.80;89.50
48579;DHT22;34357;51.948;6.132;2024-02-21T01:55:26;8.80;89.50
48579;DHT22;34357;51.948;6.132;2024-02-21T01:57:56;8.80;89.30
48579;DHT22;34357;51.948;6.132;2024-02-21T02:00:22;8.80;89.50
48579;DHT22;34357;51.948;6.132;2024-02-21T02:02:49;8.80;89.30
48579;DHT22;34357;51.948;6.132;2024-02-21T02:05:16;8.90;89.20
48579;DHT22;34357;51.948;6.132;2024-02-21T02:07:44;8.80;89.20
48579;DHT22;34357;51.948;6.132;2024-02-21T02:10:09;8.80;89.30
48579;DHT22;34357;51.948;6.132;2024-02-21T02:12:35;8.70;89.40
48579;DHT22;34357;51.948;6.132;2024-02-21T02:15:03;8.70;89.50
48579;DHT22;34357;51.948;6.132;2024-02-21T02:17:31;8.80;89.40
48579;DHT22;34357;51.948;6.132;2024-02-21T02:19:57;8.80;89.30
48579;DHT22;34357;51.948;6.132;2024-02-21T02:22:29;8.70;89.50
48579;DHT22;34357;51.948;6.132;2024-02-21T02:24:58;8.80;89.50
48579;DHT22;34357;51.948;6.132;2024-02-21T02:27:23;8.80;89.10
48579;DHT22;34357;51.948;6.132;2024-02-21T02:29:50;8.80;89.20
48579;DHT22;34357;51.948;6.132;2024-02-21T02:32:16;8.90;89.10
48579;DHT22;34357;51.948;6.132;2024-02-21T02:34:42;8.80;88.90
48579;DHT22;34357;51.948;6.132;2024-02-21T02:37:07;8.80;89.10
48579;DHT22;34357;51.948;6.132;2024-02-21T02:39:33;8.80;89.10
48579;DHT22;34357;51.948;6.132;2024-02-21T02:41:59;8.80;89.10
48579;DHT22;34357;51.948;6.132;2024-02-21T02:44:25;8.80;89.20
48579;DHT22;34357;51.948;6.132;2024-02-21T02:46:51;8.80;89.00
48579;DHT22;34357;51.948;6.132;2024-02-21T02:49:16;8.80;88.90
48579;DHT22;34357;51.948;6.132;2024-02-21T02:51:42;8.80;89.00
48579;DHT22;34357;51.948;6.132;2024-02-21T02:54:09;8.90;88.70
48579;DHT22;34357;51.948;6.132;2024-02-21T02:56:35;8.90;88.80
48579;DHT22;34357;51.948;6.132;2024-02-21T02:59:01;8.80;88.70
48579;DHT22;34357;51.948;6.132;2024-02-21T03:01:26;8.80;88.90
48579;DHT22;34357;51.948;6.132;2024-02-21T03:03:53;8.80;89.10
48579;DHT22;34357;51.948;6.132;2024-02-21T03:06:19;8.70;88.90
48579;DHT22;34357;51.948;6.132;2024-02-21T03:08:45;8.80;88.90
48579;DHT22;34357;51.948;6.132;2024-02-21T03:11:11;8.80;89.00
48579;DHT22;34357;51.948;6.132;2024-02-21T03:13:37;8.80;88.80
48579;DHT22;34357;51.948;6.132;2024-02-21T03:16:02;8.80;88.90
48579;DHT22;34357;51.948;6.132;2024-02-21T03:18:28;8.80;88.80
48579;DHT22;34357;51.948;6.132;2024-02-21T03:20:54;8.80;88.70
48579;DHT22;34357;51.948;6.132;2024-02-21T03:23:19;8.80;88.90
48579;DHT22;34357;51.948;6.132;2024-02-21T03:25:45;8.80;88.80
48579;DHT22;34357;51.948;6.132;2024-02-21T03:28:11;8.80;88.80
48579;DHT22;34357;51.948;6.132;2024-02-21T03:30:37;8.80;88.80
48579;DHT22;34357;51.948;6.132;2024-02-21T03:33:03;8.80;88.80
48579;DHT22;34357;51.948;6.132;2024-02-21T03:35:29;8.80;88.90
48579;DHT22;34357;51.948;6.132;2024-02-21T03:37:55;8.80;88.70
48579;DHT22;34357;51.948;6.132;2024-02-21T03:40:21;8.90;88.60
48579;DHT22;34357;51.948;6.132;2024-02-21T03:42:46;8.90;88.60
48579;DHT22;34357;51.948;6.132;2024-02-21T03:45:12;8.90;88.60
48579;DHT22;34357;51.948;6.132;2024-02-21T03:47:38;8.80;88.60
48579;DHT22;34357;51.948;6.132;2024-02-21T03:50:06;8.80;88.60
48579;DHT22;34357;51.948;6.132;2024-02-21T03:52:32;8.90;88.60
48579;DHT22;34357;51.948;6.132;2024-02-21T03:54:57;8.80;88.50
48579;DHT22;34357;51.948;6.132;2024-02-21T03:57:23;8.80;88.60
48579;DHT22;34357;51.948;6.132;2024-02-21T03:59:51;8.80;88.70
48579;DHT22;34357;51.948;6.132;2024-02-21T04:02:17;8.80;88.60
48579;DHT22;34357;51.948;6.132;2024-02-21T04:04:44;8.80;88.60
48579;DHT22;34357;51.948;6.132;2024-02-21T04:07:16;8.80;88.50
48579;DHT22;34357;51.948;6.132;2024-02-21T04:09:42;8.80;88.60
48579;DHT22;34357;51.948;6.132;2024-02-21T04:12:08;8.90;88.40
48579;DHT22;34357;51.948;6.132;2024-02-21T04:14:35;8.80;88.30
48579;DHT22;34357;51.948;6.132;2024-02-21T04:17:01;8.80;88.40
48579;DHT22;34357;51.948;6.132;2024-02-21T04:19:27;8.80;88.40
48579;DHT22;34357;51.948;6.132;2024-02-21T04:21:53;8.80;88.50
48579;DHT22;34357;51.948;6.132;2024-02-21T04:24:18;8.80;88.40
48579;DHT22;34357;51.948;6.132;2024-02-21T04:26:44;8.80;88.20
48579;DHT22;34357;51.948;6.132;2024-02-21T04:29:10;8.90;88.20
48579;DHT22;34357;51.948;6.132;2024-02-21T04:31:35;8.90;88.20
48579;DHT22;34357;51.948;6.132;2024-02-21T04:34:01;8.80;88.30
48579;DHT22;34357;51.948;6.132;2024-02-21T04:36:28;8.80;88.30
48579;DHT22;34357;51.948;6.132;2024-02-21T04:38:54;8.80;88.30
48579;DHT22;34357;51.948;6.132;2024-02-21T04:41:20;8.80;88.20
48579;DHT22;34357;51.948;6.132;2024-02-21T04:43:46;8.70;88.40
48579;DHT22;34357;51.948;6.132;2024-02-21T04:46:13;8.80;88.40
48579;DHT22;34357;51.948;6.132;2024-02-21T04:48:39;8.70;88.30
48579;DHT22;34357;51.948;6.132;2024-02-21T04:51:05;8.80;88.40
48579;DHT22;34357;51.948;6.132;2024-02-21T04:53:30;8.70;88.50
48579;DHT22;34357;51.948;6.132;2024-02-21T04:55:56;8.70;88.60
48579;DHT22;34357;51.948;6.132;2024-02-21T04:58:22;8.80;88.40
48579;DHT22;34357;51.948;6.132;2024-02-21T05:00:47;8.80;88.30
48579;DHT22;34357;51.948;6.132;2024-02-21T05:03:13;8.80;88.30
48579;DHT22;34357;51.948;6.132;2024-02-21T05:05:39;8.80;88.30
48579;DHT22;34357;51.948;6.132;2024-02-21T05:08:05;8.80;88.10
48579;DHT22;34357;51.948;6.132;2024-02-21T05:10:30;8.80;88.10
48579;DHT22;34357;51.948;6.132;2024-02-21T05:12:56;8.70;88.20
48579;DHT22;34357;51.948;6.132;2024-02-21T05:15:22;8.70;88.30
48579;DHT22;34357;51.948;6.132;2024-02-21T05:17:48;8.70;88.40
48579;DHT22;34357;51.948;6.132;2024-02-21T05:20:13;8.70;88.40
48579;DHT22;34357;51.948;6.132;2024-02-21T05:22:39;8.60;88.40
48579;DHT22;34357;51.948;6.132;2024-02-21T05:25:05;8.60;88.50
48579;DHT22;34357;51.948;6.132;2024-02-21T05:27:31;8.60;88.40
48579;DHT22;34357;51.948;6.132;2024-02-21T05:29:57;8.70;88.40
48579;DHT22;34357;51.948;6.132;2024-02-21T05:32:23;8.70;88.40
48579;DHT22;34357;51.948;6.132;2024-02-21T05:34:50;8.70;88.30
48579;DHT22;34357;51.948;6.132;2024-02-21T05:37:16;8.60;88.40
48579;DHT22;34357;51.948;6.132;2024-02-21T05:39:42;8.70;88.30
48579;DHT22;34357;51.948;6.132;2024-02-21T05:42:07;8.60;88.40
48579;DHT22;34357;51.948;6.132;2024-02-21T05:44:33;8.60;88.50
48579;DHT22;34357;51.948;6.132;2024-02-21T05:46:59;8.60;88.50
48579;DHT22;34357;51.948;6.132;2024-02-21T05:49:24;8.60;88.60
48579;DHT22;34357;51.948;6.132;2024-02-21T05:51:50;8.70;88.10
48579;DHT22;34357;51.948;6.132;2024-02-21T05:54:16;8.60;88.20
48579;DHT22;34357;51.948;6.132;2024-02-21T05:56:48;8.60;88.30
48579;DHT22;34357;51.948;6.132;2024-02-21T05:59:13;8.60;88.20
48579;DHT22;34357;51.948;6.132;2024-02-21T06:01:39;8.60;88.40
48579;DHT22;34357;51.948;6.132;2024-02-21T06:04:05;8.60;88.30
48579;DHT22;34357;51.948;6.132;2024-02-21T06:06:31;8.60;88.20
48579;DHT22;34357;51.948;6.132;2024-02-21T06:08:56;8.70;88.20
48579;DHT22;34357;51.948;6.132;2024-02-21T06:11:24;8.60;88.30
48579;DHT22;34357;51.948;6.132;2024-02-21T06:13:49;8.60;88.30
48579;DHT22;34357;51.948;6.132;2024-02-21T06:16:15;8.60;88.20
48579;DHT22;34357;51.948;6.132;2024-02-21T06:18:41;8.60;88.20
48579;DHT22;34357;51.948;6.132;2024-02-21T06:21:07;8.60;88.10
48579;DHT22;34357;51.948;6.132;2024-02-21T06:23:32;8.60;88.20
48579;DHT22;34357;51.948;6.132;2024-02-21T06:25:58;8.60;88.10
48579;DHT22;34357;51.948;6.132;2024-02-21T06:28:24;8.60;88.10
48579;DHT22;34357;51.948;6.132;2024-02-21T06:30:50;8.60;88.20
48579;DHT22;34357;51.948;6.132;2024-02-21T06:33:15;8.60;88.10
48579;DHT22;34357;51.948;6.132;2024-02-21T06:35:41;8.60;88.10
48579;DHT22;34357;51.948;6.132;2024-02-21T06:38:08;8.60;88.30
48579;DHT22;34357;51.948;6.132;2024-02-21T06:40:34;8.70;88.30
48579;DHT22;34357;51.948;6.132;2024-02-21T06:43:04;8.60;88.10
48579;DHT22;34357;51.948;6.132;2024-02-21T06:45:30;8.70;88.00
48579;DHT22;34357;51.948;6.132;2024-02-21T06:47:56;8.60;88.10
48579;DHT22;34357;51.948;6.132;2024-02-21T06:50:22;8.60;88.30
48579;DHT22;34357;51.948;6.132;2024-02-21T06:52:47;8.60;88.50
48579;DHT22;34357;51.948;6.132;2024-02-21T06:55:13;8.60;88.50
48579;DHT22;34357;51.948;6.132;2024-02-21T06:57:39;8.60;88.30
48579;DHT22;34357;51.948;6.132;2024-02-21T07:00:05;8.60;88.50
48579;DHT22;34357;51.948;6.132;2024-02-21T07:02:34;8.50;88.50
48579;DHT22;34357;51.948;6.132;2024-02-21T07:04:59;8.50;88.50
48579;DHT22;34357;51.948;6.132;2024-02-21T07:07:25;8.60;88.50
48579;DHT22;34357;51.948;6.132;2024-02-21T07:09:51;8.60;88.40
48579;DHT22;34357;51.948;6.132;2024-02-21T07:12:17;8.60;88.50
48579;DHT22;34357;51.948;6.132;2024-02-21T07:14:42;8.60;88.40
48579;DHT22;34357;51.948;6.132;2024-02-21T07:17:08;8.60;88.40
48579;DHT22;34357;51.948;6.132;2024-02-21T07:19:34;8.50;88.40
48579;DHT22;34357;51.948;6.132;2024-02-21T07:22:01;8.50;88.50
48579;DHT22;34357;51.948;6.132;2024-02-21T07:24:26;8.50;88.50
48579;DHT22;34357;51.948;6.132;2024-02-21T07:26:52;8.60;88.30
48579;DHT22;34357;51.948;6.132;2024-02-21T07:29:18;8.60;88.20
48579;DHT22;34357;51.948;6.132;2024-02-21T07:31:44;8.50;88.20
48579;DHT22;34357;51.948;6.132;2024-02-21T07:34:10;8.60;88.40
48579;DHT22;34357;51.948;6.132;2024-02-21T07:36:36;8.60;88.20
48579;DHT22;34357;51.948;6.132;2024-02-21T07:39:05;8.60;88.20
48579;DHT22;34357;51.948;6.132;2024-02-21T07:41:31;8.60;88.10
48579;DHT22;34357;51.948;6.132;2024-02-21T07:43:57;8.60;88.00
48579;DHT22;34357;51.948;6.132;2024-02-21T07:46:23;8.60;87.90
48579;DHT22;34357;51.948;6.132;2024-02-21T07:48:51;8.60;87.70
48579;DHT22;34357;51.948;6.132;2024-02-21T07:51:17;8.70;87.70
48579;DHT22;34357;51.948;6.132;2024-02-21T07:53:44;8.70;87.50
48579;DHT22;34357;51.948;6.132;2024-02-21T07:56:15;8.70;87.50
48579;DHT22;34357;51.948;6.132;2024-02-21T07:58:41;8.70;87.40
48579;DHT22;34357;51.948;6.132;2024-02-21T08:01:08;8.70;87.40
48579;DHT22;34357;51.948;6.132;2024-02-21T08:03:34;8.80;87.40
48579;DHT22;34357;51.948;6.132;2024-02-21T08:06:00;8.80;87.40
48579;DHT22;34357;51.948;6.132;2024-02-21T08:08:26;8.80;87.40
48579;DHT22;34357;51.948;6.132;2024-02-21T08:10:52;8.80;87.20
48579;DHT22;34357;51.948;6.132;2024-02-21T08:13:17;8.80;87.40
48579;DHT22;34357;51.948;6.132;2024-02-21T08:15:43;8.80;87.20
48579;DHT22;34357;51.948;6.132;2024-02-21T08:18:09;8.80;87.00
48579;DHT22;34357;51.948;6.132;2024-02-21T08:20:35;8.90;86.80
48579;DHT22;34357;51.948;6.132;2024-02-21T08:23:01;8.90;86.80
48579;DHT22;34357;51.948;6.132;2024-02-21T08:25:27;9.00;86.80
48579;DHT22;34357;51.948;6.132;2024-02-21T08:27:56;8.90;86.80
48579;DHT22;34357;51.948;6.132;2024-02-21T08:30:22;9.00;86.80
48579;DHT22;34357;51.948;6.132;2024-02-21T08:32:48;9.00;86.80
48579;DHT22;34357;51.948;6.132;2024-02-21T08:35:14;9.00;86.80
48579;DHT22;34357;51.948;6.132;2024-02-21T08:37:40;9.10;86.80
48579;DHT22;34357;51.948;6.132;2024-02-21T08:40:06;9.10;86.70
48579;DHT22;34357;51.948;6.132;2024-02-21T08:42:38;9.10;86.50
48579;DHT22;34357;51.948;6.132;2024-02-21T08:45:04;9.20;86.30
48579;DHT22;34357;51.948;6.132;2024-02-21T08:47:30;9.20;86.20
48579;DHT22;34357;51.948;6.132;2024-02-21T08:49:56;9.20;86.10
48579;DHT22;34357;51.948;6.132;2024-02-21T08:52:22;9.20;86.10
48579;DHT22;34357;51.948;6.132;2024-02-21T08:54:49;9.10;86.10
48579;DHT22;34357;51.948;6.132;2024-02-21T08:57:16;9.10;86.00
48579;DHT22;34357;51.948;6.132;2024-02-21T08:59:44;9.20;86.10
48579;DHT22;34357;51.948;6.132;2024-02-21T09:02:10;9.20;85.80
48579;DHT22;34357;51.948;6.132;2024-02-21T09:04:35;9.30;85.80
48579;DHT22;34357;51.948;6.132;2024-02-21T09:07:01;9.30;85.70
48579;DHT22;34357;51.948;6.132;2024-02-21T09:09:27;9.30;85.70
48579;DHT22;34357;51.948;6.132;2024-02-21T09:11:54;9.30;85.80
48579;DHT22;34357;51.948;6.132;2024-02-21T09:14:20;9.40;85.60
48579;DHT22;34357;51.948;6.132;2024-02-21T09:16:45;9.40;85.50
48579;DHT22;34357;51.948;6.132;2024-02-21T09:19:11;9.50;85.20
48579;DHT22;34357;51.948;6.132;2024-02-21T09:21:37;9.40;85.00
48579;DHT22;34357;51.948;6.132;2024-02-21T09:24:04;9.40;84.90
48579;DHT22;34357;51.948;6.132;2024-02-21T09:26:32;9.40;84.90
48579;DHT22;34357;51.948;6.132;2024-02-21T09:28:58;9.40;84.90
48579;DHT22;34357;51.948;6.132;2024-02-21T09:31:23;9.40;84.80
48579;DHT22;34357;51.948;6.132;2024-02-21T09:33:49;9.50;85.00
48579;DHT22;34357;51.948;6.132;2024-02-21T09:36:15;9.40;85.10
48579;DHT22;34357;51.948;6.132;2024-02-21T09:38:41;9.40;85.00
48579;DHT22;34357;51.948;6.132;2024-02-21T09:41:22;9.40;85.00
48579;DHT22;34357;51.948;6.132;2024-02-21T09:43:50;9.40;85.00
48579;DHT22;34357;51.948;6.132;2024-02-21T09:46:27;9.40;84.90
48579;DHT22;34357;51.948;6.132;2024-02-21T09:49:13;9.60;84.80
48579;DHT22;34357;51.948;6.132;2024-02-21T09:51:43;9.60;84.40
48579;DHT22;34357;51.948;6.132;2024-02-21T09:54:10;9.50;84.30
48579;DHT22;34357;51.948;6.132;2024-02-21T09:56:36;9.50;84.60
48579;DHT22;34357;51.948;6.132;2024-02-21T09:59:03;9.50;84.80
48579;DHT22;34357;51.948;6.132;2024-02-21T10:01:31;9.60;84.70
48579;DHT22;34357;51.948;6.132;2024-02-21T10:03:57;9.60;84.60
48579;DHT22;34357;51.948;6.132;2024-02-21T10:06:23;9.60;84.80
48579;DHT22;34357;51.948;6.132;2024-02-21T10:08:53;9.70;84.50
48579;DHT22;34357;51.948;6.132;2024-02-21T10:11:23;9.60;84.30
48579;DHT22;34357;51.948;6.132;2024-02-21T10:13:49;9.60;84.60
48579;DHT22;34357;51.948;6.132;2024-02-21T10:16:15;9.60;84.60
48579;DHT22;34357;51.948;6.132;2024-02-21T10:18:41;9.60;84.60
48579;DHT22;34357;51.948;6.132;2024-02-21T10:21:07;9.60;84.40
48579;DHT22;34357;51.948;6.132;2024-02-21T10:23:49;9.60;84.90
48579;DHT22;34357;51.948;6.132;2024-02-21T10:26:17;9.60;85.00
48579;DHT22;34357;51.948;6.132;2024-02-21T10:28:43;9.70;85.20
48579;DHT22;34357;51.948;6.132;2024-02-21T10:31:11;9.70;84.90
48579;DHT22;34357;51.948;6.132;2024-02-21T10:33:56;9.60;85.60
48579;DHT22;34357;51.948;6.132;2024-02-21T10:36:23;9.50;86.00
48579;DHT22;34357;51.948;6.132;2024-02-21T10:38:50;9.40;86.60
48579;DHT22;34357;51.948;6.132;2024-02-21T10:41:19;9.40;86.70
48579;DHT22;34357;51.948;6.132;2024-02-21T10:43:50;9.40;87.20
48579;DHT22;34357;51.948;6.132;2024-02-21T10:46:20;9.30;87.40
48579;DHT22;34357;51.948;6.132;2024-02-21T10:48:47;9.30;87.90
48579;DHT22;34357;51.948;6.132;2024-02-21T10:51:18;9.20;88.10
48579;DHT22;34357;51.948;6.132;2024-02-21T10:54:08;9.10;88.50
48579;DHT22;34357;51.948;6.132;2024-02-21T10:56:38;9.10;88.80
48579;DHT22;34357;51.948;6.132;2024-02-21T10:59:06;9.10;88.70
48579;DHT22;34357;51.948;6.132;2024-02-21T11:01:32;9.10;88.70
48579;DHT22;34357;51.948;6.132;2024-02-21T11:04:06;9.10;88.60
48579;DHT22;34357;51.948;6.132;2024-02-21T11:06:35;9.20;88.80
48579;DHT22;34357;51.948;6.132;2024-02-21T11:11:28;9.50;88.30
48579;DHT22;34357;51.948;6.132;2024-02-21T11:14:05;9.50;87.70
48579;DHT22;34357;51.948;6.132;2024-02-21T11:16:38;9.60;87.30
48579;DHT22;34357;51.948;6.132;2024-02-21T11:19:09;9.60;86.90
48579;DHT22;34357;51.948;6.132;2024-02-21T11:21:37;9.60;86.40
48579;DHT22;34357;51.948;6.132;2024-02-21T11:24:06;9.70;86.50
48579;DHT22;34357;51.948;6.132;2024-02-21T11:26:32;9.60;86.20
48579;DHT22;34357;51.948;6.132;2024-02-21T11:28:59;9.50;86.20
48579;DHT22;34357;51.948;6.132;2024-02-21T11:31:26;9.50;86.10
48579;DHT22;34357;51.948;6.132;2024-02-21T11:33:54;9.40;86.20
48579;DHT22;34357;51.948;6.132;2024-02-21T11:36:27;9.40;85.80
48579;DHT22;34357;51.948;6.132;2024-02-21T11:38:53;9.60;85.60
48579;DHT22;34357;51.948;6.132;2024-02-21T11:41:19;9.70;85.40
48579;DHT22;34357;51.948;6.132;2024-02-21T11:43:48;9.70;85.10
48579;DHT22;34357;51.948;6.132;2024-02-21T11:46:14;9.80;85.00
48579;DHT22;34357;51.948;6.132;2024-02-21T11:48:41;9.80;84.30
48579;DHT22;34357;51.948;6.132;2024-02-21T11:51:10;9.70;84.40
48579;DHT22;34357;51.948;6.132;2024-02-21T11:53:36;9.70;83.90
48579;DHT22;34357;51.948;6.132;2024-02-21T11:56:02;9.70;84.10
48579;DHT22;34357;51.948;6.132;2024-02-21T11:58:28;9.70;84.00
48579;DHT22;34357;51.948;6.132;2024-02-21T12:00:55;9.60;83.90
48579;DHT22;34357;51.948;6.132;2024-02-21T12:03:20;9.70;84.30
48579;DHT22;34357;51.948;6.132;2024-02-21T12:05:46;9.60;84.20
48579;DHT22;34357;51.948;6.132;2024-02-21T12:08:12;9.70;83.80
48579;DHT22;34357;51.948;6.132;2024-02-21T12:10:38;9.70;83.10
48579;DHT22;34357;51.948;6.132;2024-02-21T12:13:09;9.70;83.40
48579;DHT22;34357;51.948;6.132;2024-02-21T12:15:35;9.60;83.20
48579;DHT22;34357;51.948;6.132;2024-02-21T12:18:01;9.70;83.10
48579;DHT22;34357;51.948;6.132;2024-02-21T12:20:27;9.60;83.30
48579;DHT22;34357;51.948;6.132;2024-02-21T12:22:53;9.70;83.70
48579;DHT22;34357;51.948;6.132;2024-02-21T12:25:23;9.70;83.20
48579;DHT22;34357;51.948;6.132;2024-02-21T12:27:51;9.70;83.30
48579;DHT22;34357;51.948;6.132;2024-02-21T12:30:17;9.80;83.50
48579;DHT22;34357;51.948;6.132;2024-02-21T12:32:43;9.90;83.00
48579;DHT22;34357;51.948;6.132;2024-02-21T12:35:09;10.00;82.70
48579;DHT22;34357;51.948;6.132;2024-02-21T12:37:34;9.90;82.40
48579;DHT22;34357;51.948;6.132;2024-02-21T12:40:00;10.00;82.80
48579;DHT22;34357;51.948;6.132;2024-02-21T12:42:26;10.20;82.50
48579;DHT22;34357;51.948;6.132;2024-02-21T12:44:54;10.40;82.30
48579;DHT22;34357;51.948;6.132;2024-02-21T12:47:19;10.50;81.60
48579;DHT22;34357;51.948;6.132;2024-02-21T12:49:49;10.50;81.00
48579;DHT22;34357;51.948;6.132;2024-02-21T12:52:15;10.50;80.90
48579;DHT22;34357;51.948;6.132;2024-02-21T12:54:41;10.50;80.80
48579;DHT22;34357;51.948;6.132;2024-02-21T12:57:08;10.60;81.20
48579;DHT22;34357;51.948;6.132;2024-02-21T12:59:34;10.50;81.00
48579;DHT22;34357;51.948;6.132;2024-02-21T13:02:02;10.60;81.30
48579;DHT22;34357;51.948;6.132;2024-02-21T13:04:28;10.70;81.20
48579;DHT22;34357;51.948;6.132;2024-02-21T13:06:54;10.80;80.50
48579;DHT22;34357;51.948;6.132;2024-02-21T13:09:21;10.70;81.10
48579;DHT22;34357;51.948;6.132;2024-02-21T13:11:46;10.60;80.30
48579;DHT22;34357;51.948;6.132;2024-02-21T13:14:12;10.70;80.40
48579;DHT22;34357;51.948;6.132;2024-02-21T13:16:38;10.70;80.80
48579;DHT22;34357;51.948;6.132;2024-02-21T13:19:07;10.80;80.50
48579;DHT22;34357;51.948;6.132;2024-02-21T13:21:36;10.80;80.50
48579;DHT22;34357;51.948;6.132;2024-02-21T13:24:02;10.80;80.20
48579;DHT22;34357;51.948;6.132;2024-02-21T13:26:28;10.70;80.30
48579;DHT22;34357;51.948;6.132;2024-02-21T13:28:54;10.70;80.50
48579;DHT22;34357;51.948;6.132;2024-02-21T13:31:20;10.80;80.40
48579;DHT22;34357;51.948;6.132;2024-02-21T13:33:46;10.90;80.60
48579;DHT22;34357;51.948;6.132;2024-02-21T13:36:12;10.80;80.20
48579;DHT22;34357;51.948;6.132;2024-02-21T13:38:38;10.90;80.10
48579;DHT22;34357;51.948;6.132;2024-02-21T13:41:05;10.90;79.90
48579;DHT22;34357;51.948;6.132;2024-02-21T13:43:32;10.90;79.80
48579;DHT22;34357;51.948;6.132;2024-02-21T13:46:02;10.80;79.50
48579;DHT22;34357;51.948;6.132;2024-02-21T13:48:30;10.80;80.00
48579;DHT22;34357;51.948;6.132;2024-02-21T13:50:56;10.90;80.10
48579;DHT22;34357;51.948;6.132;2024-02-21T13:53:22;10.90;79.60
48579;DHT22;34357;51.948;6.132;2024-02-21T13:55:49;11.00;79.90
48579;DHT22;34357;51.948;6.132;2024-02-21T13:58:16;11.00;78.80
48579;DHT22;34357;51.948;6.132;2024-02-21T14:00:43;11.00;79.20
48579;DHT22;34357;51.948;6.132;2024-02-21T14:03:08;11.10;78.90
48579;DHT22;34357;51.948;6.132;2024-02-21T14:05:35;11.00;78.70
48579;DHT22;34357;51.948;6.132;2024-02-21T14:08:01;11.10;78.80
48579;DHT22;34357;51.948;6.132;2024-02-21T14:10:26;11.00;78.60
48579;DHT22;34357;51.948;6.132;2024-02-21T14:12:53;11.10;78.80
48579;DHT22;34357;51.948;6.132;2024-02-21T14:15:19;11.10;78.60
48579;DHT22;34357;51.948;6.132;2024-02-21T14:17:44;11.10;78.40
48579;DHT22;34357;51.948;6.132;2024-02-21T14:20:10;11.10;78.00
48579;DHT22;34357;51.948;6.132;2024-02-21T14:22:36;11.00;77.90
48579;DHT22;34357;51.948;6.132;2024-02-21T14:25:03;11.00;78.30
48579;DHT22;34357;51.948;6.132;2024-02-21T14:27:32;11.00;78.40
48579;DHT22;34357;51.948;6.132;2024-02-21T14:29:58;10.90;78.50
48579;DHT22;34357;51.948;6.132;2024-02-21T14:32:24;11.00;77.90
48579;DHT22;34357;51.948;6.132;2024-02-21T14:34:49;10.90;77.10
48579;DHT22;34357;51.948;6.132;2024-02-21T14:37:16;10.90;76.10
48579;DHT22;34357;51.948;6.132;2024-02-21T14:39:41;11.00;76.40
48579;DHT22;34357;51.948;6.132;2024-02-21T14:42:08;10.90;75.90
48579;DHT22;34357;51.948;6.132;2024-02-21T14:44:37;10.90;76.90
48579;DHT22;34357;51.948;6.132;2024-02-21T14:47:03;10.90;77.10
48579;DHT22;34357;51.948;6.132;2024-02-21T14:49:29;10.90;77.10
48579;DHT22;34357;51.948;6.132;2024-02-21T14:51:55;10.90;76.70
48579;DHT22;34357;51.948;6.132;2024-02-21T14:54:21;10.80;75.90
48579;DHT22;34357;51.948;6.132;2024-02-21T14:56:47;10.80;76.40
48579;DHT22;34357;51.948;6.132;2024-02-21T14:59:13;10.80;76.70
48579;DHT22;34357;51.948;6.132;2024-02-21T15:01:38;10.80;76.80
48579;DHT22;34357;51.948;6.132;2024-02-21T15:04:05;10.80;76.50
48579;DHT22;34357;51.948;6.132;2024-02-21T15:06:31;10.70;76.50
48579;DHT22;34357;51.948;6.132;2024-02-21T15:08:57;10.70;76.40
48579;DHT22;34357;51.948;6.132;2024-02-21T15:11:24;10.70;76.40
48579;DHT22;34357;51.948;6.132;2024-02-21T15:13:49;10.70;76.40
48579;DHT22;34357;51.948;6.132;2024-02-21T15:16:15;10.70;77.20
48579;DHT22;34357;51.948;6.132;2024-02-21T15:18:44;10.70;77.40
48579;DHT22;34357;51.948;6.132;2024-02-21T15:21:10;10.60;77.40
48579;DHT22;34357;51.948;6.132;2024-02-21T15:23:40;10.60;78.10
48579;DHT22;34357;51.948;6.132;2024-02-21T15:26:06;10.50;78.60
48579;DHT22;34357;51.948;6.132;2024-02-21T15:28:32;10.50;78.90
48579;DHT22;34357;51.948;6.132;2024-02-21T15:30:58;10.50;78.90
48579;DHT22;34357;51.948;6.132;2024-02-21T15:33:23;10.50;79.20
48579;DHT22;34357;51.948;6.132;2024-02-21T15:35:49;10.40;80.00
48579;DHT22;34357;51.948;6.132;2024-02-21T15:38:16;10.30;80.40
48579;DHT22;34357;51.948;6.132;2024-02-21T15:40:42;10.30;80.80